sensor_id;sensor_type;location;lat;lon;timestamp;P1;durP1;ratioP1;P2;durP2;ratioP2
22660;SDS011;11497;52.222;21.246;2022-07-29T00:01:57;13.45;;;7.20;;
22660;SDS011;11497;52.222;21.246;2022-07-29T00:04:25;15.00;;;6.78;;
22660;SDS011;11497;52.222;21.246;2022-07-29T00:06:53;11.02;;;6.72;;
22660;SDS011;11497;52.222;21.246;2022-07-29T00:09:21;10.38;;;6.60;;
22660;SDS011;11497;52.222;21.246;2022-07-29T00:11:48;12.32;;;6.95;;
22660;SDS011;11497;52.222;21.246;2022-07-29T00:14:16;12.63;;;7.00;;
22660;SDS011;11497;52.222;21.246;2022-07-29T00:16:44;13.00;;;7.38;;
22660;SDS011;11497;52.222;21.246;2022-07-29T00:19:13;13.07;;;6.72;;
22660;SDS011;11497;52.222;21.246;2022-07-29T00:21:40;9.75;;;6.93;;
22660;SDS011;11497;52.222;21.246;2022-07-29T00:24:08;9.13;;;6.07;;
22660;SDS011;11497;52.222;21.246;2022-07-29T00:26:36;10.38;;;5.97;;
22660;SDS011;11497;52.222;21.246;2022-07-29T00:29:04;10.38;;;6.00;;
22660;SDS011;11497;52.222;21.246;2022-07-29T00:31:52;10.55;;;5.95;;
22660;SDS011;11497;52.222;21.246;2022-07-29T00:34:20;8.00;;;5.38;;
22660;SDS011;11497;52.222;21.246;2022-07-29T00:37:06;11.43;;;5.80;;
22660;SDS011;11497;52.222;21.246;2022-07-29T00:39:34;9.07;;;6.40;;
22660;SDS011;11497;52.222;21.246;2022-07-29T00:42:03;10.52;;;6.38;;
22660;SDS011;11497;52.222;21.246;2022-07-29T00:44:35;9.10;;;5.95;;
22660;SDS011;11497;52.222;21.246;2022-07-29T00:47:04;10.05;;;5.88;;
22660;SDS011;11497;52.222;21.246;2022-07-29T00:49:33;13.07;;;7.00;;
22660;SDS011;11497;52.222;21.246;2022-07-29T00:52:02;11.88;;;6.82;;
22660;SDS011;11497;52.222;21.246;2022-07-29T00:54:34;14.32;;;6.70;;
22660;SDS011;11497;52.222;21.246;2022-07-29T00:57:11;6.55;;;5.55;;
22660;SDS011;11497;52.222;21.246;2022-07-29T00:59:41;8.75;;;5.90;;
22660;SDS011;11497;52.222;21.246;2022-07-29T01:02:08;10.23;;;6.03;;
22660;SDS011;11497;52.222;21.246;2022-07-29T01:04:37;15.23;;;5.95;;
22660;SDS011;11497;52.222;21.246;2022-07-29T01:07:05;12.02;;;6.07;;
22660;SDS011;11497;52.222;21.246;2022-07-29T01:09:34;11.30;;;5.80;;
22660;SDS011;11497;52.222;21.246;2022-07-29T01:12:19;7.50;;;5.45;;
22660;SDS011;11497;52.222;21.246;2022-07-29T01:14:51;13.18;;;5.60;;
22660;SDS011;11497;52.222;21.246;2022-07-29T01:17:21;10.68;;;5.72;;
22660;SDS011;11497;52.222;21.246;2022-07-29T01:31:07;9.27;;;6.05;;
22660;SDS011;11497;52.222;21.246;2022-07-29T01:33:45;9.32;;;5.95;;
22660;SDS011;11497;52.222;21.246;2022-07-29T01:41:49;10.57;;;5.43;;
22660;SDS011;11497;52.222;21.246;2022-07-29T01:44:50;8.45;;;5.75;;
22660;SDS011;11497;52.222;21.246;2022-07-29T01:47:38;10.85;;;5.72;;
22660;SDS011;11497;52.222;21.246;2022-07-29T01:50:19;9.38;;;5.45;;
22660;SDS011;11497;52.222;21.246;2022-07-29T01:53:01;9.30;;;5.40;;
22660;SDS011;11497;52.222;21.246;2022-07-29T01:55:34;15.98;;;5.18;;
22660;SDS011;11497;52.222;21.246;2022-07-29T01:58:05;7.75;;;5.15;;
22660;SDS011;11497;52.222;21.246;2022-07-29T02:00:34;7.70;;;5.30;;
22660;SDS011;11497;52.222;21.246;2022-07-29T02:03:05;9.10;;;5.28;;
22660;SDS011;11497;52.222;21.246;2022-07-29T02:05:37;8.98;;;5.60;;
22660;SDS011;11497;52.222;21.246;2022-07-29T02:08:07;11.02;;;5.30;;
22660;SDS011;11497;52.222;21.246;2022-07-29T02:10:37;7.20;;;5.05;;
22660;SDS011;11497;52.222;21.246;2022-07-29T02:13:07;7.88;;;4.90;;
22660;SDS011;11497;52.222;21.246;2022-07-29T02:15:38;8.88;;;5.40;;
22660;SDS011;11497;52.222;21.246;2022-07-29T02:18:13;14.85;;;5.50;;
22660;SDS011;11497;52.222;21.246;2022-07-29T02:20:46;9.57;;;5.25;;
22660;SDS011;11497;52.222;21.246;2022-07-29T02:23:17;8.93;;;5.40;;
22660;SDS011;11497;52.222;21.246;2022-07-29T02:25:51;9.10;;;5.53;;
22660;SDS011;11497;52.222;21.246;2022-07-29T02:28:22;10.50;;;5.53;;
22660;SDS011;11497;52.222;21.246;2022-07-29T02:30:53;10.02;;;5.30;;
22660;SDS011;11497;52.222;21.246;2022-07-29T02:33:25;11.60;;;5.63;;
22660;SDS011;11497;52.222;21.246;2022-07-29T02:35:54;11.60;;;5.22;;
22660;SDS011;11497;52.222;21.246;2022-07-29T02:38:22;10.15;;;5.65;;
22660;SDS011;11497;52.222;21.246;2022-07-29T02:41:12;8.68;;;5.43;;
22660;SDS011;11497;52.222;21.246;2022-07-29T02:43:57;8.60;;;5.38;;
22660;SDS011;11497;52.222;21.246;2022-07-29T02:46:32;7.07;;;4.97;;
22660;SDS011;11497;52.222;21.246;2022-07-29T02:51:46;13.75;;;5.45;;
22660;SDS011;11497;52.222;21.246;2022-07-29T02:54:33;13.43;;;5.70;;
22660;SDS011;11497;52.222;21.246;2022-07-29T02:57:04;7.60;;;5.07;;
22660;SDS011;11497;52.222;21.246;2022-07-29T02:59:45;10.23;;;6.15;;
22660;SDS011;11497;52.222;21.246;2022-07-29T03:02:18;13.52;;;5.35;;
22660;SDS011;11497;52.222;21.246;2022-07-29T03:04:47;8.95;;;5.70;;
22660;SDS011;11497;52.222;21.246;2022-07-29T03:07:18;8.52;;;5.43;;
22660;SDS011;11497;52.222;21.246;2022-07-29T03:09:47;9.55;;;5.38;;
22660;SDS011;11497;52.222;21.246;2022-07-29T03:12:16;10.82;;;5.10;;
22660;SDS011;11497;52.222;21.246;2022-07-29T03:14:44;8.30;;;4.72;;
22660;SDS011;11497;52.222;21.246;2022-07-29T03:17:13;12.70;;;5.65;;
22660;SDS011;11497;52.222;21.246;2022-07-29T03:19:41;9.32;;;6.20;;
22660;SDS011;11497;52.222;21.246;2022-07-29T03:22:09;9.57;;;6.07;;
22660;SDS011;11497;52.222;21.246;2022-07-29T03:24:38;8.50;;;5.22;;
22660;SDS011;11497;52.222;21.246;2022-07-29T03:27:06;7.78;;;5.60;;
22660;SDS011;11497;52.222;21.246;2022-07-29T03:29:34;10.20;;;5.57;;
22660;SDS011;11497;52.222;21.246;2022-07-29T03:32:03;9.98;;;5.38;;
22660;SDS011;11497;52.222;21.246;2022-07-29T03:34:34;7.57;;;5.47;;
22660;SDS011;11497;52.222;21.246;2022-07-29T03:37:04;11.10;;;5.60;;
22660;SDS011;11497;52.222;21.246;2022-07-29T03:39:33;9.18;;;5.43;;
22660;SDS011;11497;52.222;21.246;2022-07-29T03:42:04;9.88;;;5.75;;
22660;SDS011;11497;52.222;21.246;2022-07-29T03:44:34;8.43;;;5.20;;
22660;SDS011;11497;52.222;21.246;2022-07-29T03:47:04;9.05;;;5.47;;
22660;SDS011;11497;52.222;21.246;2022-07-29T03:49:36;11.18;;;5.40;;
22660;SDS011;11497;52.222;21.246;2022-07-29T03:52:05;12.30;;;5.32;;
22660;SDS011;11497;52.222;21.246;2022-07-29T03:54:34;10.35;;;4.93;;
22660;SDS011;11497;52.222;21.246;2022-07-29T03:57:02;10.15;;;5.60;;
22660;SDS011;11497;52.222;21.246;2022-07-29T03:59:32;11.48;;;5.50;;
22660;SDS011;11497;52.222;21.246;2022-07-29T04:02:00;9.93;;;5.13;;
22660;SDS011;11497;52.222;21.246;2022-07-29T04:04:34;8.98;;;5.35;;
22660;SDS011;11497;52.222;21.246;2022-07-29T04:07:02;9.73;;;5.63;;
22660;SDS011;11497;52.222;21.246;2022-07-29T04:09:30;12.68;;;5.47;;
22660;SDS011;11497;52.222;21.246;2022-07-29T04:11:58;9.20;;;4.97;;
22660;SDS011;11497;52.222;21.246;2022-07-29T04:14:33;13.50;;;5.30;;
22660;SDS011;11497;52.222;21.246;2022-07-29T04:17:01;10.82;;;5.20;;
22660;SDS011;11497;52.222;21.246;2022-07-29T04:19:31;7.63;;;4.32;;
22660;SDS011;11497;52.222;21.246;2022-07-29T04:21:59;9.73;;;4.13;;
22660;SDS011;11497;52.222;21.246;2022-07-29T04:24:27;10.23;;;4.30;;
22660;SDS011;11497;52.222;21.246;2022-07-29T04:26:55;9.98;;;4.70;;
22660;SDS011;11497;52.222;21.246;2022-07-29T04:29:23;8.13;;;3.80;;
22660;SDS011;11497;52.222;21.246;2022-07-29T04:31:51;20.95;;;5.13;;
22660;SDS011;11497;52.222;21.246;2022-07-29T04:34:18;30.05;;;6.18;;
22660;SDS011;11497;52.222;21.246;2022-07-29T04:36:46;14.65;;;4.90;;
22660;SDS011;11497;52.222;21.246;2022-07-29T04:39:14;31.67;;;4.70;;
22660;SDS011;11497;52.222;21.246;2022-07-29T04:41:48;19.55;;;4.45;;
22660;SDS011;11497;52.222;21.246;2022-07-29T04:44:20;14.13;;;4.28;;
22660;SDS011;11497;52.222;21.246;2022-07-29T04:46:54;12.88;;;4.35;;
22660;SDS011;11497;52.222;21.246;2022-07-29T04:49:23;12.25;;;3.65;;
22660;SDS011;11497;52.222;21.246;2022-07-29T04:51:51;7.18;;;3.22;;
22660;SDS011;11497;52.222;21.246;2022-07-29T04:54:19;7.28;;;3.40;;
22660;SDS011;11497;52.222;21.246;2022-07-29T04:56:47;4.65;;;2.78;;
22660;SDS011;11497;52.222;21.246;2022-07-29T04:59:15;5.95;;;3.28;;
22660;SDS011;11497;52.222;21.246;2022-07-29T05:01:42;7.10;;;3.10;;
22660;SDS011;11497;52.222;21.246;2022-07-29T05:04:10;7.85;;;3.03;;
22660;SDS011;11497;52.222;21.246;2022-07-29T05:06:39;7.55;;;3.33;;
22660;SDS011;11497;52.222;21.246;2022-07-29T05:09:06;8.65;;;3.08;;
22660;SDS011;11497;52.222;21.246;2022-07-29T05:11:34;5.13;;;2.65;;
22660;SDS011;11497;52.222;21.246;2022-07-29T05:14:02;11.23;;;2.70;;
22660;SDS011;11497;52.222;21.246;2022-07-29T05:16:30;3.83;;;2.63;;
22660;SDS011;11497;52.222;21.246;2022-07-29T05:18:57;7.22;;;2.72;;
22660;SDS011;11497;52.222;21.246;2022-07-29T05:21:25;4.30;;;2.53;;
22660;SDS011;11497;52.222;21.246;2022-07-29T05:23:53;5.70;;;2.63;;
22660;SDS011;11497;52.222;21.246;2022-07-29T05:26:21;4.70;;;2.30;;
22660;SDS011;11497;52.222;21.246;2022-07-29T05:28:49;7.22;;;2.33;;
22660;SDS011;11497;52.222;21.246;2022-07-29T05:31:17;6.10;;;2.10;;
22660;SDS011;11497;52.222;21.246;2022-07-29T05:33:45;5.47;;;2.33;;
22660;SDS011;11497;52.222;21.246;2022-07-29T05:36:13;4.78;;;1.80;;
22660;SDS011;11497;52.222;21.246;2022-07-29T05:38:40;1.98;;;1.58;;
22660;SDS011;11497;52.222;21.246;2022-07-29T05:41:08;6.30;;;2.28;;
22660;SDS011;11497;52.222;21.246;2022-07-29T05:43:36;4.72;;;2.10;;
22660;SDS011;11497;52.222;21.246;2022-07-29T05:46:04;5.13;;;1.80;;
22660;SDS011;11497;52.222;21.246;2022-07-29T05:48:32;8.43;;;2.13;;
22660;SDS011;11497;52.222;21.246;2022-07-29T05:51:00;7.22;;;1.60;;
22660;SDS011;11497;52.222;21.246;2022-07-29T05:53:28;2.58;;;1.13;;
22660;SDS011;11497;52.222;21.246;2022-07-29T05:55:56;5.05;;;1.30;;
22660;SDS011;11497;52.222;21.246;2022-07-29T05:58:24;4.40;;;1.73;;
22660;SDS011;11497;52.222;21.246;2022-07-29T06:00:52;3.65;;;1.40;;
22660;SDS011;11497;52.222;21.246;2022-07-29T06:03:20;5.15;;;1.50;;
22660;SDS011;11497;52.222;21.246;2022-07-29T06:05:47;2.53;;;1.30;;
22660;SDS011;11497;52.222;21.246;2022-07-29T06:08:15;6.45;;;1.70;;
22660;SDS011;11497;52.222;21.246;2022-07-29T06:10:44;3.17;;;1.60;;
22660;SDS011;11497;52.222;21.246;2022-07-29T06:13:12;4.15;;;1.70;;
22660;SDS011;11497;52.222;21.246;2022-07-29T06:15:42;2.55;;;1.45;;
22660;SDS011;11497;52.222;21.246;2022-07-29T06:18:11;3.20;;;1.30;;
22660;SDS011;11497;52.222;21.246;2022-07-29T06:20:39;1.38;;;1.15;;
22660;SDS011;11497;52.222;21.246;2022-07-29T06:23:07;3.55;;;1.40;;
22660;SDS011;11497;52.222;21.246;2022-07-29T06:25:36;3.92;;;1.27;;
22660;SDS011;11497;52.222;21.246;2022-07-29T06:28:06;2.03;;;1.65;;
22660;SDS011;11497;52.222;21.246;2022-07-29T06:30:34;2.08;;;1.20;;
22660;SDS011;11497;52.222;21.246;2022-07-29T06:33:02;3.55;;;1.10;;
22660;SDS011;11497;52.222;21.246;2022-07-29T06:35:32;6.57;;;1.55;;
22660;SDS011;11497;52.222;21.246;2022-07-29T06:38:08;3.35;;;1.20;;
22660;SDS011;11497;52.222;21.246;2022-07-29T06:40:56;5.40;;;1.88;;
22660;SDS011;11497;52.222;21.246;2022-07-29T06:43:31;4.80;;;1.30;;
22660;SDS011;11497;52.222;21.246;2022-07-29T06:46:20;6.72;;;1.50;;
22660;SDS011;11497;52.222;21.246;2022-07-29T06:48:50;2.40;;;1.25;;
22660;SDS011;11497;52.222;21.246;2022-07-29T06:51:19;2.38;;;1.30;;
22660;SDS011;11497;52.222;21.246;2022-07-29T06:53:51;4.95;;;1.67;;
22660;SDS011;11497;52.222;21.246;2022-07-29T06:56:28;3.15;;;1.40;;
22660;SDS011;11497;52.222;21.246;2022-07-29T06:59:08;2.75;;;1.10;;
22660;SDS011;11497;52.222;21.246;2022-07-29T07:01:39;3.60;;;1.40;;
22660;SDS011;11497;52.222;21.246;2022-07-29T07:04:09;4.55;;;1.15;;
22660;SDS011;11497;52.222;21.246;2022-07-29T07:06:37;2.83;;;1.20;;
22660;SDS011;11497;52.222;21.246;2022-07-29T07:09:05;1.70;;;1.20;;
22660;SDS011;11497;52.222;21.246;2022-07-29T07:11:34;2.17;;;1.00;;
22660;SDS011;11497;52.222;21.246;2022-07-29T07:14:02;2.17;;;1.00;;
22660;SDS011;11497;52.222;21.246;2022-07-29T07:16:30;3.08;;;1.80;;
22660;SDS011;11497;52.222;21.246;2022-07-29T07:18:59;7.45;;;1.23;;
22660;SDS011;11497;52.222;21.246;2022-07-29T07:21:27;3.92;;;1.00;;
22660;SDS011;11497;52.222;21.246;2022-07-29T07:23:56;2.35;;;1.00;;
22660;SDS011;11497;52.222;21.246;2022-07-29T07:26:25;3.53;;;1.27;;
22660;SDS011;11497;52.222;21.246;2022-07-29T07:28:53;2.20;;;1.30;;
22660;SDS011;11497;52.222;21.246;2022-07-29T07:31:21;4.80;;;1.83;;
22660;SDS011;11497;52.222;21.246;2022-07-29T07:33:49;2.40;;;1.20;;
22660;SDS011;11497;52.222;21.246;2022-07-29T07:36:18;5.88;;;1.00;;
22660;SDS011;11497;52.222;21.246;2022-07-29T07:38:46;1.52;;;0.85;;
22660;SDS011;11497;52.222;21.246;2022-07-29T07:41:14;5.28;;;0.75;;
22660;SDS011;11497;52.222;21.246;2022-07-29T07:43:42;6.68;;;0.98;;
22660;SDS011;11497;52.222;21.246;2022-07-29T07:46:10;4.60;;;0.80;;
22660;SDS011;11497;52.222;21.246;2022-07-29T07:48:37;2.15;;;0.90;;
22660;SDS011;11497;52.222;21.246;2022-07-29T07:51:05;2.47;;;0.77;;
22660;SDS011;11497;52.222;21.246;2022-07-29T07:53:34;4.30;;;1.10;;
22660;SDS011;11497;52.222;21.246;2022-07-29T07:56:01;2.55;;;0.88;;
22660;SDS011;11497;52.222;21.246;2022-07-29T07:58:37;2.83;;;0.80;;
22660;SDS011;11497;52.222;21.246;2022-07-29T08:01:05;3.30;;;1.00;;
22660;SDS011;11497;52.222;21.246;2022-07-29T08:03:34;3.63;;;0.90;;
22660;SDS011;11497;52.222;21.246;2022-07-29T08:06:02;1.90;;;0.90;;
22660;SDS011;11497;52.222;21.246;2022-07-29T08:08:30;2.13;;;1.00;;
22660;SDS011;11497;52.222;21.246;2022-07-29T08:10:58;2.83;;;1.00;;
22660;SDS011;11497;52.222;21.246;2022-07-29T08:13:35;3.85;;;0.90;;
22660;SDS011;11497;52.222;21.246;2022-07-29T08:16:04;7.90;;;1.33;;
22660;SDS011;11497;52.222;21.246;2022-07-29T08:18:42;3.25;;;0.90;;
22660;SDS011;11497;52.222;21.246;2022-07-29T08:21:11;1.15;;;0.80;;
22660;SDS011;11497;52.222;21.246;2022-07-29T08:23:41;3.50;;;1.13;;
22660;SDS011;11497;52.222;21.246;2022-07-29T08:26:20;7.10;;;0.88;;
22660;SDS011;11497;52.222;21.246;2022-07-29T08:28:49;4.57;;;1.20;;
22660;SDS011;11497;52.222;21.246;2022-07-29T08:31:17;4.55;;;0.90;;
22660;SDS011;11497;52.222;21.246;2022-07-29T08:33:45;4.05;;;1.25;;
22660;SDS011;11497;52.222;21.246;2022-07-29T08:36:13;2.63;;;0.90;;
22660;SDS011;11497;52.222;21.246;2022-07-29T08:38:40;2.42;;;0.75;;
22660;SDS011;11497;52.222;21.246;2022-07-29T08:41:08;2.85;;;0.75;;
22660;SDS011;11497;52.222;21.246;2022-07-29T08:43:36;5.07;;;1.02;;
22660;SDS011;11497;52.222;21.246;2022-07-29T08:46:07;3.33;;;1.00;;
22660;SDS011;11497;52.222;21.246;2022-07-29T08:48:35;2.40;;;0.98;;
22660;SDS011;11497;52.222;21.246;2022-07-29T08:51:04;3.40;;;0.88;;
22660;SDS011;11497;52.222;21.246;2022-07-29T08:53:36;2.13;;;0.90;;
22660;SDS011;11497;52.222;21.246;2022-07-29T08:56:04;2.97;;;0.93;;
22660;SDS011;11497;52.222;21.246;2022-07-29T08:58:33;4.57;;;1.20;;
22660;SDS011;11497;52.222;21.246;2022-07-29T09:01:04;2.65;;;0.80;;
22660;SDS011;11497;52.222;21.246;2022-07-29T09:03:38;4.38;;;1.25;;
22660;SDS011;11497;52.222;21.246;2022-07-29T09:06:13;2.33;;;0.90;;
22660;SDS011;11497;52.222;21.246;2022-07-29T09:08:41;2.90;;;0.90;;
22660;SDS011;11497;52.222;21.246;2022-07-29T09:11:11;5.32;;;1.10;;
22660;SDS011;11497;52.222;21.246;2022-07-29T09:13:40;3.63;;;1.02;;
22660;SDS011;11497;52.222;21.246;2022-07-29T09:16:08;13.70;;;1.80;;
22660;SDS011;11497;52.222;21.246;2022-07-29T09:18:37;6.22;;;1.85;;
22660;SDS011;11497;52.222;21.246;2022-07-29T09:21:06;13.80;;;2.13;;
22660;SDS011;11497;52.222;21.246;2022-07-29T09:26:37;7.50;;;1.33;;
22660;SDS011;11497;52.222;21.246;2022-07-29T09:29:08;11.00;;;1.98;;
22660;SDS011;11497;52.222;21.246;2022-07-29T09:31:48;8.63;;;1.70;;
22660;SDS011;11497;52.222;21.246;2022-07-29T09:34:22;5.57;;;1.17;;
22660;SDS011;11497;52.222;21.246;2022-07-29T09:36:55;5.75;;;1.23;;
22660;SDS011;11497;52.222;21.246;2022-07-29T09:42:01;6.25;;;0.90;;
22660;SDS011;11497;52.222;21.246;2022-07-29T09:44:41;3.25;;;1.08;;
22660;SDS011;11497;52.222;21.246;2022-07-29T09:47:15;3.45;;;1.00;;
22660;SDS011;11497;52.222;21.246;2022-07-29T09:52:21;2.63;;;0.98;;
22660;SDS011;11497;52.222;21.246;2022-07-29T09:54:49;3.00;;;0.77;;
22660;SDS011;11497;52.222;21.246;2022-07-29T09:57:26;1.75;;;0.80;;
22660;SDS011;11497;52.222;21.246;2022-07-29T09:59:58;3.50;;;0.95;;
22660;SDS011;11497;52.222;21.246;2022-07-29T10:02:39;1.42;;;0.98;;
22660;SDS011;11497;52.222;21.246;2022-07-29T10:05:18;3.00;;;1.15;;
22660;SDS011;11497;52.222;21.246;2022-07-29T10:08:02;4.22;;;1.38;;
22660;SDS011;11497;52.222;21.246;2022-07-29T10:10:31;2.60;;;0.90;;
22660;SDS011;11497;52.222;21.246;2022-07-29T10:13:01;3.22;;;1.00;;
22660;SDS011;11497;52.222;21.246;2022-07-29T10:15:42;4.72;;;1.05;;
22660;SDS011;11497;52.222;21.246;2022-07-29T10:18:13;4.93;;;1.10;;
22660;SDS011;11497;52.222;21.246;2022-07-29T10:20:41;6.47;;;1.20;;
22660;SDS011;11497;52.222;21.246;2022-07-29T10:23:09;2.42;;;0.93;;
22660;SDS011;11497;52.222;21.246;2022-07-29T10:25:37;4.82;;;1.50;;
22660;SDS011;11497;52.222;21.246;2022-07-29T10:28:05;6.45;;;0.98;;
22660;SDS011;11497;52.222;21.246;2022-07-29T10:30:38;2.78;;;1.10;;
22660;SDS011;11497;52.222;21.246;2022-07-29T10:33:15;4.45;;;1.00;;
22660;SDS011;11497;52.222;21.246;2022-07-29T10:44:09;1.17;;;0.90;;
22660;SDS011;11497;52.222;21.246;2022-07-29T10:46:49;1.48;;;0.80;;
22660;SDS011;11497;52.222;21.246;2022-07-29T10:49:20;2.88;;;0.88;;
22660;SDS011;11497;52.222;21.246;2022-07-29T11:02:43;2.10;;;0.90;;
22660;SDS011;11497;52.222;21.246;2022-07-29T11:05:16;4.15;;;1.05;;
22660;SDS011;11497;52.222;21.246;2022-07-29T11:10:53;2.90;;;1.00;;
22660;SDS011;11497;52.222;21.246;2022-07-29T11:16:15;3.38;;;1.02;;
22660;SDS011;11497;52.222;21.246;2022-07-29T11:21:36;2.78;;;0.90;;
22660;SDS011;11497;52.222;21.246;2022-07-29T11:24:25;2.75;;;0.80;;
22660;SDS011;11497;52.222;21.246;2022-07-29T11:29:58;3.72;;;1.13;;
22660;SDS011;11497;52.222;21.246;2022-07-29T11:32:39;1.45;;;0.80;;
22660;SDS011;11497;52.222;21.246;2022-07-29T11:35:17;1.95;;;0.80;;
22660;SDS011;11497;52.222;21.246;2022-07-29T11:38:23;3.38;;;0.98;;
22660;SDS011;11497;52.222;21.246;2022-07-29T11:49:23;2.35;;;0.90;;
22660;SDS011;11497;52.222;21.246;2022-07-29T11:52:00;5.63;;;1.05;;
22660;SDS011;11497;52.222;21.246;2022-07-29T11:54:32;3.33;;;0.95;;
22660;SDS011;11497;52.222;21.246;2022-07-29T11:57:22;3.33;;;1.00;;
22660;SDS011;11497;52.222;21.246;2022-07-29T12:00:06;12.25;;;1.10;;
22660;SDS011;11497;52.222;21.246;2022-07-29T12:02:39;2.78;;;1.00;;
22660;SDS011;11497;52.222;21.246;2022-07-29T12:05:14;3.83;;;1.00;;
22660;SDS011;11497;52.222;21.246;2022-07-29T12:10:49;2.78;;;1.00;;
22660;SDS011;11497;52.222;21.246;2022-07-29T12:13:19;4.57;;;1.17;;
22660;SDS011;11497;52.222;21.246;2022-07-29T12:15:54;1.67;;;1.00;;
22660;SDS011;11497;52.222;21.246;2022-07-29T12:18:26;34.10;;;4.68;;
22660;SDS011;11497;52.222;21.246;2022-07-29T12:20:58;3.65;;;1.00;;
22660;SDS011;11497;52.222;21.246;2022-07-29T12:23:31;3.75;;;1.00;;
22660;SDS011;11497;52.222;21.246;2022-07-29T12:26:04;3.03;;;0.93;;
22660;SDS011;11497;52.222;21.246;2022-07-29T12:28:37;2.60;;;1.00;;
22660;SDS011;11497;52.222;21.246;2022-07-29T12:31:05;3.42;;;1.08;;
22660;SDS011;11497;52.222;21.246;2022-07-29T12:33:39;5.95;;;0.90;;
22660;SDS011;11497;52.222;21.246;2022-07-29T12:36:08;3.85;;;0.90;;
22660;SDS011;11497;52.222;21.246;2022-07-29T12:38:43;1.65;;;0.80;;
22660;SDS011;11497;52.222;21.246;2022-07-29T12:41:12;6.13;;;1.10;;
22660;SDS011;11497;52.222;21.246;2022-07-29T12:43:51;3.15;;;1.00;;
22660;SDS011;11497;52.222;21.246;2022-07-29T12:46:20;2.08;;;1.00;;
22660;SDS011;11497;52.222;21.246;2022-07-29T12:48:52;2.65;;;1.20;;
22660;SDS011;11497;52.222;21.246;2022-07-29T12:51:55;2.50;;;0.90;;
22660;SDS011;11497;52.222;21.246;2022-07-29T12:54:15;5.82;;;1.02;;
22660;SDS011;11497;52.222;21.246;2022-07-29T12:56:44;0.93;;;0.80;;
22660;SDS011;11497;52.222;21.246;2022-07-29T12:59:15;3.38;;;1.00;;
22660;SDS011;11497;52.222;21.246;2022-07-29T13:01:49;2.53;;;0.90;;
22660;SDS011;11497;52.222;21.246;2022-07-29T13:04:28;2.75;;;1.02;;
22660;SDS011;11497;52.222;21.246;2022-07-29T13:06:58;3.45;;;1.15;;
22660;SDS011;11497;52.222;21.246;2022-07-29T13:09:40;1.73;;;1.00;;
22660;SDS011;11497;52.222;21.246;2022-07-29T13:14:39;3.17;;;1.00;;
22660;SDS011;11497;52.222;21.246;2022-07-29T13:19:38;4.82;;;0.80;;
22660;SDS011;11497;52.222;21.246;2022-07-29T13:22:08;3.10;;;1.13;;
22660;SDS011;11497;52.222;21.246;2022-07-29T13:24:54;4.10;;;1.00;;
22660;SDS011;11497;52.222;21.246;2022-07-29T13:27:25;2.70;;;0.88;;
22660;SDS011;11497;52.222;21.246;2022-07-29T13:29:59;2.28;;;1.02;;
22660;SDS011;11497;52.222;21.246;2022-07-29T13:32:28;1.67;;;1.00;;
22660;SDS011;11497;52.222;21.246;2022-07-29T13:34:58;2.17;;;1.00;;
22660;SDS011;11497;52.222;21.246;2022-07-29T13:37:31;2.20;;;1.00;;
22660;SDS011;11497;52.222;21.246;2022-07-29T13:40:02;2.13;;;0.85;;
22660;SDS011;11497;52.222;21.246;2022-07-29T13:42:31;3.00;;;0.85;;
22660;SDS011;11497;52.222;21.246;2022-07-29T13:44:59;6.05;;;0.98;;
22660;SDS011;11497;52.222;21.246;2022-07-29T13:47:27;2.63;;;0.90;;
22660;SDS011;11497;52.222;21.246;2022-07-29T13:50:02;2.33;;;1.00;;
22660;SDS011;11497;52.222;21.246;2022-07-29T13:52:33;2.63;;;1.05;;
22660;SDS011;11497;52.222;21.246;2022-07-29T13:55:02;7.32;;;1.13;;
22660;SDS011;11497;52.222;21.246;2022-07-29T13:57:30;4.40;;;0.98;;
22660;SDS011;11497;52.222;21.246;2022-07-29T13:59:58;6.47;;;0.90;;
22660;SDS011;11497;52.222;21.246;2022-07-29T14:02:33;4.03;;;1.02;;
22660;SDS011;11497;52.222;21.246;2022-07-29T14:05:01;4.80;;;0.90;;
22660;SDS011;11497;52.222;21.246;2022-07-29T14:07:34;2.08;;;1.20;;
22660;SDS011;11497;52.222;21.246;2022-07-29T14:10:02;3.45;;;1.10;;
22660;SDS011;11497;52.222;21.246;2022-07-29T14:12:30;7.97;;;1.45;;
22660;SDS011;11497;52.222;21.246;2022-07-29T14:14:58;3.17;;;1.00;;
22660;SDS011;11497;52.222;21.246;2022-07-29T14:17:26;2.72;;;1.17;;
22660;SDS011;11497;52.222;21.246;2022-07-29T14:19:54;4.95;;;1.25;;
22660;SDS011;11497;52.222;21.246;2022-07-29T14:22:22;7.80;;;0.98;;
22660;SDS011;11497;52.222;21.246;2022-07-29T14:24:52;1.25;;;0.90;;
22660;SDS011;11497;52.222;21.246;2022-07-29T14:27:20;1.15;;;0.98;;
22660;SDS011;11497;52.222;21.246;2022-07-29T14:30:04;2.13;;;0.90;;
22660;SDS011;11497;52.222;21.246;2022-07-29T14:32:33;3.03;;;1.08;;
22660;SDS011;11497;52.222;21.246;2022-07-29T14:35:00;1.60;;;1.05;;
22660;SDS011;11497;52.222;21.246;2022-07-29T14:37:28;4.88;;;0.93;;
22660;SDS011;11497;52.222;21.246;2022-07-29T14:40:06;4.18;;;1.10;;
22660;SDS011;11497;52.222;21.246;2022-07-29T14:42:35;3.13;;;0.90;;
22660;SDS011;11497;52.222;21.246;2022-07-29T14:45:05;2.00;;;0.95;;
22660;SDS011;11497;52.222;21.246;2022-07-29T14:47:34;8.30;;;1.40;;
22660;SDS011;11497;52.222;21.246;2022-07-29T14:50:03;1.75;;;0.98;;
22660;SDS011;11497;52.222;21.246;2022-07-29T14:52:31;2.33;;;1.20;;
22660;SDS011;11497;52.222;21.246;2022-07-29T14:55:00;2.30;;;1.00;;
22660;SDS011;11497;52.222;21.246;2022-07-29T14:57:29;3.10;;;1.17;;
22660;SDS011;11497;52.222;21.246;2022-07-29T14:59:56;6.25;;;1.23;;
22660;SDS011;11497;52.222;21.246;2022-07-29T15:02:24;2.65;;;0.90;;
22660;SDS011;11497;52.222;21.246;2022-07-29T15:05:12;3.47;;;1.00;;
22660;SDS011;11497;52.222;21.246;2022-07-29T15:07:40;2.35;;;0.93;;
22660;SDS011;11497;52.222;21.246;2022-07-29T15:10:08;4.03;;;0.95;;
22660;SDS011;11497;52.222;21.246;2022-07-29T15:12:40;1.50;;;1.00;;
22660;SDS011;11497;52.222;21.246;2022-07-29T15:15:08;5.03;;;1.10;;
22660;SDS011;11497;52.222;21.246;2022-07-29T15:17:36;9.57;;;1.63;;
22660;SDS011;11497;52.222;21.246;2022-07-29T15:20:04;3.63;;;0.98;;
22660;SDS011;11497;52.222;21.246;2022-07-29T15:22:32;1.52;;;0.90;;
22660;SDS011;11497;52.222;21.246;2022-07-29T15:25:00;2.22;;;1.08;;
22660;SDS011;11497;52.222;21.246;2022-07-29T15:27:28;2.40;;;0.95;;
22660;SDS011;11497;52.222;21.246;2022-07-29T15:29:56;4.65;;;1.08;;
22660;SDS011;11497;52.222;21.246;2022-07-29T15:32:24;2.95;;;1.10;;
22660;SDS011;11497;52.222;21.246;2022-07-29T15:34:52;1.30;;;0.90;;
22660;SDS011;11497;52.222;21.246;2022-07-29T15:37:19;2.33;;;1.00;;
22660;SDS011;11497;52.222;21.246;2022-07-29T15:39:47;5.50;;;1.00;;
22660;SDS011;11497;52.222;21.246;2022-07-29T15:42:15;3.58;;;1.15;;
22660;SDS011;11497;52.222;21.246;2022-07-29T15:44:43;4.25;;;1.05;;
22660;SDS011;11497;52.222;21.246;2022-07-29T15:47:11;3.42;;;1.10;;
22660;SDS011;11497;52.222;21.246;2022-07-29T15:49:41;2.60;;;1.15;;
22660;SDS011;11497;52.222;21.246;2022-07-29T15:52:18;4.55;;;1.17;;
22660;SDS011;11497;52.222;21.246;2022-07-29T15:54:52;2.35;;;1.10;;
22660;SDS011;11497;52.222;21.246;2022-07-29T15:57:22;5.95;;;1.10;;
22660;SDS011;11497;52.222;21.246;2022-07-29T15:59:50;3.35;;;0.90;;
22660;SDS011;11497;52.222;21.246;2022-07-29T16:02:18;2.97;;;0.90;;
22660;SDS011;11497;52.222;21.246;2022-07-29T16:04:46;3.50;;;1.10;;
22660;SDS011;11497;52.222;21.246;2022-07-29T16:07:14;2.25;;;0.90;;
22660;SDS011;11497;52.222;21.246;2022-07-29T16:09:42;2.53;;;1.00;;
22660;SDS011;11497;52.222;21.246;2022-07-29T16:12:19;1.80;;;1.00;;